logo tempoitalia

Diretta Meteo Colorado City, Stati Uniti (USA)domenica 30 agosto ore 23:35

Mappa
Sereno 18 °C Sereno 24 Ore: T.min 16 T.max 33
Ponente Est/Sud-Est Km/h 20.3 Punto di rugiada: 5 °C Umidità: 42% Visibilità: 10 Km
Il sole sorge alle: 06:01 Il sole tramonta alle: 19:03
30 Agosto 2026 23:35 tempo osservato: Sereno Sereno 18 42 1019 vento: Nord E/SE 20.3
30 Agosto 2026 23:15 tempo osservato: Sereno Sereno 18 45 1019 vento: Nord E 13
30 Agosto 2026 22:55 tempo osservato: Sereno Sereno 18 45 1019 vento: Nord E/SE 16.7
30 Agosto 2026 22:35 tempo osservato: Sereno Sereno 19 39 1019 vento: Nord E 20.3
30 Agosto 2026 22:15 tempo osservato: Sereno Sereno 18 45 1019 vento: Nord E/SE 11.1
30 Agosto 2026 21:55 tempo osservato: Sereno Sereno 18 42 1019 vento: Nord E 16.7
30 Agosto 2026 21:35 tempo osservato: Sereno Sereno 20 39 1019 vento: Nord E 14.8
30 Agosto 2026 21:15 tempo osservato: Sereno Sereno 21 37 1019 vento: Nord N 0
30 Agosto 2026 20:55 tempo osservato: Sereno Sereno 21 37 1019 vento: Nord E 7.4
30 Agosto 2026 20:35 tempo osservato: Sereno Sereno 25 29 1019 vento: Nord N 0
30 Agosto 2026 20:15 tempo osservato: Sereno Sereno 25 29 1018 vento: Nord N 5.5
30 Agosto 2026 19:55 tempo osservato: Sereno Sereno 26 27 1018 vento: Nord N/NO 7.4
30 Agosto 2026 19:35 tempo osservato: Sereno Sereno 27 26 1018 vento: Nord N 5.5
30 Agosto 2026 19:15 tempo osservato: Nuvoloso Nuvoloso 27 24 1018 vento: Nord O 9.3
30 Agosto 2026 18:55 tempo osservato: Nuvoloso Nuvoloso 29 20 1018 vento: Nord O/NO 9.3
30 Agosto 2026 18:35 tempo osservato: Nuvoloso Nuvoloso 30 20 1017 vento: Nord O 11.1
30 Agosto 2026 18:15 tempo osservato: Sereno Sereno 30 20 1017 vento: Nord O 16.7
30 Agosto 2026 17:55 tempo osservato: Sereno Sereno 30 20 1018 vento: Nord O 20.3
30 Agosto 2026 17:35 tempo osservato: Sereno Sereno 31 18 1017 vento: Nord O 22.2
30 Agosto 2026 17:15 tempo osservato: Sereno Sereno 32 18 1017 vento: Nord O/SO 24
30 Agosto 2026 16:55 tempo osservato: Sereno Sereno 32 18 1018 vento: Nord O/SO 20.3
30 Agosto 2026 16:35 tempo osservato: Sereno Sereno 33 17 1018 vento: Nord O/SO 24
30 Agosto 2026 16:15 tempo osservato: Sereno Sereno 32 19 1018 vento: Nord O/SO 24
30 Agosto 2026 15:55 tempo osservato: Nuvoloso Nuvoloso 33 18 1018 vento: Nord O/SO 33.3
30 Agosto 2026 15:35 tempo osservato: Pioggia Pioggia 31 23 1018 vento: Nord SO 22.2
30 Agosto 2026 15:15 tempo osservato: Sereno Sereno 32 19 1018 vento: Nord SO 20.3
30 Agosto 2026 14:55 tempo osservato: Sereno Sereno 32 19 1018 vento: Nord SO 24
30 Agosto 2026 14:35 tempo osservato: Nuvoloso Nuvoloso 33 18 1018 vento: Nord S/SO 22.2
30 Agosto 2026 14:15 tempo osservato: Nuvoloso Nuvoloso 32 19 1019 vento: Nord S/SO 22.2
30 Agosto 2026 13:55 tempo osservato: Nuvoloso Nuvoloso 33 18 1019 vento: Nord S/SO 33.3
30 Agosto 2026 13:35 tempo osservato: Nuvoloso Nuvoloso 33 18 1019 vento: Nord SO 25.9
30 Agosto 2026 13:15 tempo osservato: Nuvoloso Nuvoloso 33 19 1019 vento: Nord SO 25.9
30 Agosto 2026 12:55 tempo osservato: Nuvoloso Nuvoloso 33 19 1019 vento: Nord SO 27.8
30 Agosto 2026 12:35 tempo osservato: Sereno Sereno 33 19 1019 vento: Nord SO 29.6
30 Agosto 2026 12:15 tempo osservato: Sereno Sereno 32 22 1019 vento: Nord S/SO 20.3
30 Agosto 2026 11:55 tempo osservato: Sereno Sereno 31 23 1020 vento: Nord S/SO 25.9
30 Agosto 2026 11:35 tempo osservato: Sereno Sereno 31 25 1020 vento: Nord S/SO 25.9
30 Agosto 2026 11:15 tempo osservato: Sereno Sereno 32 24 1020 vento: Nord SO 24
30 Agosto 2026 10:55 tempo osservato: Sereno Sereno 31 23 1020 vento: Nord S 25.9
30 Agosto 2026 10:35 tempo osservato: Sereno Sereno 31 23 1020 vento: Nord S 22.2
30 Agosto 2026 10:15 tempo osservato: Sereno Sereno 31 23 1020 vento: Nord SO 22.2
30 Agosto 2026 09:55 tempo osservato: Sereno Sereno 30 25 1020 vento: Nord S/SO 22.2
30 Agosto 2026 09:35 tempo osservato: Sereno Sereno 30 30 1020 vento: Nord SE 14.8
30 Agosto 2026 09:15 tempo osservato: Sereno Sereno 28 32 1020 vento: Nord S 16.7
30 Agosto 2026 08:55 tempo osservato: Sereno Sereno 28 37 1020 vento: Nord SE 16.7
30 Agosto 2026 08:35 tempo osservato: Sereno Sereno 26 41 1020 vento: Nord SE 16.7
30 Agosto 2026 08:15 tempo osservato: Sereno Sereno 26 41 1020 vento: Nord SE 14.8
30 Agosto 2026 07:55 tempo osservato: Sereno Sereno 25 44 1020 vento: Nord SE 14.8
30 Agosto 2026 07:35 tempo osservato: Sereno Sereno 24 50 1020 vento: Nord E/SE 9.3
30 Agosto 2026 07:15 tempo osservato: Sereno Sereno 22 56 1020 vento: Nord N 0
30 Agosto 2026 06:55 tempo osservato: Sereno Sereno 20 64 1020 vento: Nord E/SE 13
30 Agosto 2026 06:35 tempo osservato: Sereno Sereno 18 72 1020 vento: Nord E/SE 16.7
30 Agosto 2026 06:15 tempo osservato: Temporale nelle vicinanze Temporale nelle vicinanze 20 59 1020 vento: Nord E/SE 22.2
30 Agosto 2026 05:55 tempo osservato: Sereno Sereno 17 72 1020 vento: Nord E/SE 20.3
30 Agosto 2026 05:35 tempo osservato: Nuvoloso Nuvoloso 16 77 1020 vento: Nord E/SE 16.7
30 Agosto 2026 05:15 tempo osservato: Sereno Sereno 16 77 1019 vento: Nord E/SE 11.1
30 Agosto 2026 04:55 tempo osservato: Sereno Sereno 17 72 1019 vento: Nord E 16.7
30 Agosto 2026 04:35 tempo osservato: Sereno Sereno 17 77 1019 vento: Nord E 11.1
30 Agosto 2026 04:15 tempo osservato: Sereno Sereno 17 72 1019 vento: Nord E/SE 18.5
30 Agosto 2026 03:55 tempo osservato: Temporale nelle vicinanze Temporale nelle vicinanze 17 72 1019 vento: Nord E 14.8
30 Agosto 2026 03:35 tempo osservato: Sereno Sereno 17 72 1019 vento: Nord E/SE 20.3
30 Agosto 2026 03:15 tempo osservato: Sereno Sereno 17 72 1019 vento: Nord E/SE 16.7
30 Agosto 2026 02:55 tempo osservato: Sereno Sereno 18 72 1019 vento: Nord E 20.3
30 Agosto 2026 02:35 tempo osservato: Sereno Sereno 17 72 1019 vento: Nord E/SE 13
30 Agosto 2026 02:15 tempo osservato: Nuvoloso Nuvoloso 18 67 1018 vento: Nord E/SE 18.5
30 Agosto 2026 01:55 tempo osservato: Sereno Sereno 18 67 1018 vento: Nord E/SE 14.8
30 Agosto 2026 01:35 tempo osservato: Sereno Sereno 18 67 1018 vento: Nord E/SE 14.8
30 Agosto 2026 01:15 tempo osservato: Sereno Sereno 18 67 1018 vento: Nord E 16.7
30 Agosto 2026 00:55 tempo osservato: Sereno Sereno 19 63 1019 vento: Nord SE 9.3
30 Agosto 2026 00:35 tempo osservato: Sereno Sereno 19 63 1019 vento: Nord E/SE 16.7
30 Agosto 2026 00:15 tempo osservato: Sereno Sereno 20 59 1019 vento: Nord E 18.5
29 Agosto 2026 23:55 tempo osservato: Sereno Sereno 20 59 1019 vento: Nord E/SE 14.8
29 Agosto 2026 23:35 tempo osservato: Sereno Sereno 21 56 1019 vento: Nord E 11.1